Aeroporto :
LOGIN :

Iscrizione | Disclaimer

   EN    FR    IT 

 










Sommario :    VFR   VFR Marginale   IFR   IFR Intensivo   IFR Molto Intensivo
Visibilità : 
Base nubi : 
>= 8 km
>= 3000ft
5 / 8 km
1000 / 3000 ft
1500m / 5 km
500 / 1000 ft
800 / 1500m
200 / 500 ft
< 800m
< 200 ft
Simboli :   Temporali  Nebbia  Neve Forte  Precipitazioni Forti  Vento > 20 kt
SIGMETs :   Varie  Temporali  Ghiacco  Turbolenza  Onda orograficha  Ceneri Vulcaniche






- Altitudine del aeroporto : 102 ft
- Codice IATA : CNG


LFBG - Cognac

ULTIMO METAR :
  • 230100Z AUTO 14004KT 9999 ///TCU 11/09 Q0984

METARs OBSOLETI :
  • 230030Z AUTO 15007KT 9999 ///TCU 11/09 Q0985
  • 230000Z AUTO 14011KT 9999 ///TCU 11/09 Q0985
  • 222330Z AUTO 15013KT 9000 -RA FEW016/// OVC062/// ///TCU 12/09 Q0985
  • 222300Z AUTO 14011KT 9999 FEW025/// BKN060/// BKN084/// ///TCU 12/09 Q0985
  • 222230Z AUTO 14014KT 9999 FEW049 BKN062 BKN072 12/10 Q0985

TAF TAF LFBG
Valido dal 22 a 15 ore il 23 a 15 ore UTC


221400Z 2215/2315 14015G25KT CAVOK
TEMPO 2216/2222 4000 -RA
BECMG 2222/2224 15010KT
BECMG 2300/2302 9999 NSW
BECMG 2307/2309 4000 -RA BKN014



MetMap, La meteo Aeronautica in un colpo d'occhio ! - Copyright ORBIFLY Dicembre 2007 - Disclaimer

ORBIFLY MET'MAP TEAM :

Programmazione e sviluppo : Alexandra Zaïnal
Concezione e sviluppo : Baudouin d'Aumeries
Co-Programmazione e sviluppo : Marc-Olivier Méhu
Supporto tecnico e logistico : Manuel Goepfert
Aiuto per la traduzione : Arnaldo La Scala

Contatto : metmap@orbifly.com




FONTI E CREDITI :

   NOAA